createdAt,value
2022-08-08T00:00:55.704Z,52.48
2022-08-08T00:02:57.659Z,52.74
2022-08-08T00:05:43.866Z,52.53
2022-08-08T00:08:27.104Z,53.01
2022-08-08T00:11:00.827Z,52.46
2022-08-08T00:14:16.880Z,52.76
2022-08-08T00:16:41.362Z,52.66
2022-08-08T00:19:17.370Z,52.65
2022-08-08T00:21:52.430Z,52.48
2022-08-08T00:24:29.911Z,53.26
2022-08-08T00:27:05.970Z,52.84
2022-08-08T00:29:44.196Z,53.11
2022-08-08T00:32:34.154Z,52.87
2022-08-08T00:35:21.313Z,53.16
2022-08-08T00:38:32.040Z,53.61
2022-08-08T00:42:08.812Z,53.24
2022-08-08T00:45:03.914Z,55.70
2022-08-08T00:48:30.553Z,53.23
2022-08-08T00:51:38.158Z,53.45
2022-08-08T00:54:51.837Z,53.66
2022-08-08T00:58:12.726Z,53.26
2022-08-08T01:00:53.220Z,53.15
2022-08-08T01:04:11.740Z,53.55
2022-08-08T01:07:05.732Z,52.97
2022-08-08T01:10:24.814Z,53.23
2022-08-08T01:13:43.934Z,53.19
2022-08-08T01:17:03.494Z,53.04
2022-08-08T01:20:16.810Z,53.27
2022-08-08T01:24:06.129Z,53.40
2022-08-08T01:27:10.852Z,53.27
2022-08-08T01:30:03.878Z,52.90
2022-08-08T01:33:33.659Z,53.67
2022-08-08T01:39:23.922Z,53.16
2022-08-08T01:42:02.596Z,53.30
2022-08-08T01:44:58.984Z,53.44
2022-08-08T01:48:11.541Z,53.16
2022-08-08T01:50:58.955Z,53.63
2022-08-08T01:54:12.638Z,53.74
2022-08-08T01:56:47.449Z,53.63
2022-08-08T02:00:01.865Z,53.91
2022-08-08T02:02:42.657Z,53.68
2022-08-08T02:05:33.821Z,53.86
2022-08-08T02:08:34.046Z,53.96
2022-08-08T02:11:23.135Z,53.80
2022-08-08T02:13:59.652Z,53.62
2022-08-08T02:16:45.671Z,54.15
2022-08-08T02:19:41.713Z,54.17
2022-08-08T02:22:31.585Z,54.08
2022-08-08T02:25:11.810Z,53.98
2022-08-08T02:27:50.972Z,53.83
2022-08-08T02:30:27.097Z,53.77
2022-08-08T02:33:16.811Z,53.99
2022-08-08T02:36:05.677Z,54.08
2022-08-08T02:39:01.393Z,54.35
2022-08-08T02:42:11.782Z,54.52
2022-08-08T02:45:23.814Z,54.35
2022-08-08T02:48:28.342Z,54.42
2022-08-08T02:51:55.661Z,54.62
2022-08-08T02:54:53.443Z,54.81
2022-08-08T02:57:57.431Z,55.64
2022-08-08T03:00:47.228Z,55.16
2022-08-08T03:05:03.806Z,56.54
2022-08-08T03:07:41.871Z,55.92
2022-08-08T03:10:55.957Z,55.34
2022-08-08T03:15:57.495Z,55.73
2022-08-08T03:16:51.682Z,55.37
2022-08-08T03:19:51.355Z,55.26
2022-08-08T03:22:38.287Z,54.92
2022-08-08T03:25:18.087Z,55.05
2022-08-08T03:27:58.162Z,55.17
2022-08-08T03:30:29.357Z,54.99
2022-08-08T03:33:58.138Z,55.26
2022-08-08T03:36:10.402Z,55.30
2022-08-08T03:38:56.431Z,55.34
2022-08-08T03:42:12.593Z,55.83
2022-08-08T03:44:34.158Z,55.80
2022-08-08T03:47:07.113Z,55.81
2022-08-08T03:49:59.829Z,56.02
2022-08-08T03:52:35.180Z,55.95
2022-08-08T03:55:19.979Z,55.91
2022-08-08T03:58:31.986Z,55.46
2022-08-08T04:01:01.762Z,55.38
2022-08-08T04:03:59.154Z,54.97
2022-08-08T04:06:30.121Z,54.90
2022-08-08T04:09:10.867Z,55.17
2022-08-08T04:11:58.015Z,55.14
2022-08-08T04:14:45.171Z,55.16
2022-08-08T04:17:22.454Z,55.14
2022-08-08T04:20:04.881Z,54.98
2022-08-08T04:22:34.158Z,55.37
2022-08-08T04:25:04.471Z,55.22
2022-08-08T04:28:03.611Z,55.49
2022-08-08T04:30:23.054Z,55.69
2022-08-08T04:32:54.259Z,55.31
2022-08-08T04:35:29.444Z,55.46
2022-08-08T04:38:01.177Z,55.13
2022-08-08T04:40:34.619Z,55.45
2022-08-08T04:43:05.548Z,55.35
2022-08-08T04:45:42.665Z,55.50
2022-08-08T04:48:11.503Z,55.34
2022-08-08T04:50:46.138Z,55.45
2022-08-08T04:54:27.444Z,55.38
2022-08-08T04:56:08.613Z,55.49
2022-08-08T04:58:38.173Z,55.40
2022-08-08T05:01:11.340Z,55.47
2022-08-08T05:04:09.746Z,55.46
2022-08-08T05:06:39.413Z,55.19
2022-08-08T05:09:09.171Z,55.35
2022-08-08T05:11:41.070Z,55.55
2022-08-08T05:14:14.177Z,55.36
2022-08-08T05:17:00.606Z,55.15
2022-08-08T05:20:10.147Z,54.69
2022-08-08T05:22:27.768Z,52.84
2022-08-08T05:24:58.091Z,48.56
2022-08-08T05:27:26.404Z,45.50
2022-08-08T05:29:56.538Z,43.92
2022-08-08T05:32:34.347Z,42.67
2022-08-08T05:35:05.739Z,41.97
2022-08-08T05:37:52.913Z,41.61
2022-08-08T05:40:46.489Z,41.05
2022-08-08T05:43:39.637Z,40.52
2022-08-08T05:46:11.850Z,40.17
2022-08-08T05:48:43.480Z,40.19
2022-08-08T05:51:18.799Z,39.65
2022-08-08T05:54:25.443Z,40.08
2022-08-08T05:56:47.292Z,39.29
2022-08-08T05:59:59.509Z,39.18
2022-08-08T06:02:48.155Z,38.36
2022-08-08T06:05:35.144Z,37.78
2022-08-08T06:08:28.787Z,38.28
2022-08-08T06:11:02.052Z,37.98
2022-08-08T06:13:36.215Z,38.53
2022-08-08T06:16:16.154Z,38.75
2022-08-08T06:19:12.199Z,39.17
2022-08-08T06:21:57.056Z,39.09
2022-08-08T06:24:36.951Z,39.06
2022-08-08T06:27:10.689Z,39.58
2022-08-08T06:30:02.172Z,41.41
2022-08-08T06:32:47.495Z,43.52
2022-08-08T06:36:05.963Z,44.97
2022-08-08T06:38:14.726Z,45.30
2022-08-08T06:40:54.217Z,46.16
2022-08-08T06:43:33.871Z,46.93
2022-08-08T06:46:08.712Z,47.66
2022-08-08T06:48:38.471Z,48.12
2022-08-08T06:51:08.667Z,48.58
2022-08-08T06:53:50.698Z,48.75
2022-08-08T06:56:31.117Z,48.79
2022-08-08T06:58:59.815Z,48.98
2022-08-08T07:02:27.719Z,49.17
2022-08-08T07:04:41.592Z,49.18
2022-08-08T07:07:20.958Z,49.36
2022-08-08T07:10:08.351Z,49.44
2022-08-08T07:12:43.414Z,49.64
2022-08-08T07:15:32.331Z,49.40
2022-08-08T07:18:37.180Z,49.68
2022-08-08T07:21:05.678Z,49.84
2022-08-08T07:24:01.793Z,50.17
2022-08-08T07:26:41.217Z,50.30
2022-08-08T07:30:00.440Z,50.44
2022-08-08T07:32:00.019Z,50.11
2022-08-08T07:34:32.422Z,50.29
2022-08-08T07:37:11.800Z,50.38
2022-08-08T07:39:55.866Z,50.34
2022-08-08T07:42:33.378Z,50.43
2022-08-08T07:45:05.858Z,50.23
2022-08-08T07:47:39.392Z,50.42
2022-08-08T07:50:11.092Z,50.51
2022-08-08T07:52:44.157Z,50.17
2022-08-08T07:55:20.412Z,50.09
2022-08-08T07:58:01.126Z,50.29
2022-08-08T08:00:38.841Z,50.27
2022-08-08T08:03:23.491Z,50.50
2022-08-08T08:05:56.686Z,50.45
2022-08-08T08:08:39.181Z,50.08
2022-08-08T08:11:20.025Z,50.10
2022-08-08T08:14:07.471Z,49.85
2022-08-08T08:16:48.591Z,49.54
2022-08-08T08:19:21.245Z,49.41
2022-08-08T08:21:58.059Z,49.01
2022-08-08T08:24:35.374Z,49.08
2022-08-08T08:27:09.381Z,49.46
2022-08-08T08:29:42.427Z,49.31
2022-08-08T08:32:14.167Z,49.33
2022-08-08T08:35:00.497Z,49.17
2022-08-08T08:37:32.164Z,48.95
2022-08-08T08:40:03.053Z,48.81
2022-08-08T08:42:38.433Z,48.96
2022-08-08T08:45:21.220Z,48.74
2022-08-08T08:47:54.564Z,48.81
2022-08-08T08:50:33.361Z,48.33
2022-08-08T08:53:54.743Z,48.31
2022-08-08T08:56:03.780Z,47.98
2022-08-08T08:58:42.169Z,47.77
2022-08-08T09:01:18.483Z,48.04
2022-08-08T09:03:51.467Z,48.02
2022-08-08T09:06:33.762Z,47.80
2022-08-08T09:09:25.898Z,47.44
2022-08-08T09:12:08.614Z,47.38
2022-08-08T09:14:45.138Z,47.25
2022-08-08T09:17:31.871Z,46.99
2022-08-08T09:22:00.537Z,46.83
2022-08-08T09:22:59.949Z,46.86
2022-08-08T09:25:47.641Z,46.77
2022-08-08T09:28:23.893Z,47.31
2022-08-08T09:31:13.256Z,47.16
2022-08-08T09:34:30.045Z,46.97
2022-08-08T09:37:23.696Z,47.07
2022-08-08T09:39:36.745Z,46.84
2022-08-08T09:42:20.840Z,46.58
2022-08-08T09:45:15.749Z,46.51
2022-08-08T09:48:09.741Z,46.28
2022-08-08T09:50:44.068Z,46.51
2022-08-08T09:53:24.772Z,46.50
2022-08-08T09:56:14.410Z,46.78
2022-08-08T09:58:57.822Z,46.76
2022-08-08T10:01:59.711Z,46.21
2022-08-08T10:04:35.632Z,46.39
2022-08-08T10:07:07.886Z,46.22
2022-08-08T10:09:59.146Z,45.83
2022-08-08T10:12:37.463Z,46.12
2022-08-08T10:15:17.391Z,46.40
2022-08-08T10:18:06.251Z,45.65
2022-08-08T10:20:51.435Z,45.46
2022-08-08T10:23:44.193Z,45.36
2022-08-08T10:26:29.908Z,45.44
2022-08-08T10:29:04.776Z,45.22
2022-08-08T10:31:51.787Z,45.99
2022-08-08T10:34:21.561Z,45.71
2022-08-08T10:36:51.276Z,45.97
2022-08-08T10:39:31.607Z,46.09
2022-08-08T10:42:16.341Z,45.55
2022-08-08T10:44:45.620Z,39.63
2022-08-08T10:47:16.426Z,45.40
2022-08-08T10:50:02.258Z,45.63
2022-08-08T10:52:33.508Z,45.39
2022-08-08T10:55:06.976Z,45.24
2022-08-08T10:57:45.291Z,45.16
2022-08-08T11:00:23.189Z,44.99
2022-08-08T11:02:54.722Z,44.77
2022-08-08T11:05:23.432Z,44.74
2022-08-08T11:08:36.841Z,44.76
2022-08-08T11:10:44.009Z,45.01
2022-08-08T11:13:28.605Z,44.54
2022-08-08T11:16:00.857Z,44.90
2022-08-08T11:18:30.796Z,45.12
2022-08-08T11:21:08.813Z,44.84
2022-08-08T11:23:43.230Z,44.85
2022-08-08T11:26:19.154Z,40.90
2022-08-08T11:28:50.298Z,44.10
2022-08-08T11:31:21.004Z,44.81
2022-08-08T11:34:01.707Z,44.45
2022-08-08T11:36:33.199Z,44.31
2022-08-08T11:39:06.062Z,44.43
2022-08-08T11:41:45.136Z,44.12
2022-08-08T11:44:15.853Z,43.99
2022-08-08T11:46:45.060Z,44.17
2022-08-08T11:49:20.838Z,44.45
2022-08-08T11:51:52.440Z,44.13
2022-08-08T11:54:34.151Z,42.91
2022-08-08T11:57:14.664Z,43.80
2022-08-08T12:00:02.088Z,44.00
2022-08-08T12:02:48.362Z,44.38
2022-08-08T12:05:22.557Z,44.55
2022-08-08T12:07:52.663Z,44.51
2022-08-08T12:10:23.198Z,44.17
2022-08-08T12:13:02.503Z,43.49
2022-08-08T12:15:42.879Z,43.62
2022-08-08T12:18:21.328Z,39.40
2022-08-08T12:20:54.252Z,43.79
2022-08-08T12:23:42.956Z,42.04
2022-08-08T12:26:28.327Z,43.39
2022-08-08T12:29:21.290Z,43.20
2022-08-08T12:32:02.753Z,43.82
2022-08-08T12:34:39.328Z,43.88
2022-08-08T12:37:11.324Z,44.63
2022-08-08T12:40:01.451Z,44.14
2022-08-08T12:42:33.202Z,43.58
2022-08-08T12:45:58.448Z,42.92
2022-08-08T12:48:10.521Z,42.89
2022-08-08T12:50:51.909Z,42.74
2022-08-08T12:53:30.239Z,43.05
2022-08-08T12:56:19.430Z,43.84
2022-08-08T12:58:54.018Z,43.36
2022-08-08T13:01:36.954Z,43.51
2022-08-08T13:04:18.479Z,43.37
2022-08-08T13:07:00.835Z,42.90
2022-08-08T13:10:00.587Z,42.79
2022-08-08T13:12:32.495Z,43.54
2022-08-08T13:15:03.812Z,42.87
2022-08-08T13:18:09.045Z,43.31
2022-08-08T13:20:27.207Z,42.80
2022-08-08T13:23:41.310Z,42.79
2022-08-08T13:25:51.068Z,42.42
2022-08-08T13:28:31.830Z,41.61
2022-08-08T13:31:01.579Z,42.43
2022-08-08T13:33:41.621Z,42.32
2022-08-08T13:36:11.864Z,42.33
2022-08-08T13:38:40.177Z,42.53
2022-08-08T13:41:16.664Z,42.59
2022-08-08T13:43:47.037Z,42.46
2022-08-08T13:46:26.336Z,42.29
2022-08-08T13:49:11.410Z,41.79
2022-08-08T13:51:55.343Z,42.50
2022-08-08T13:54:31.400Z,43.49
2022-08-08T13:57:01.562Z,43.24
2022-08-08T13:59:32.889Z,43.45
2022-08-08T14:02:07.313Z,43.21
2022-08-08T14:04:53.286Z,43.02
2022-08-08T14:07:24.017Z,43.27
2022-08-08T14:10:04.683Z,43.77
2022-08-08T14:12:35.935Z,43.10
2022-08-08T14:15:05.060Z,43.18
2022-08-08T14:17:57.446Z,43.34
2022-08-08T14:20:55.988Z,43.16
2022-08-08T14:24:03.930Z,42.44
2022-08-08T14:26:10.788Z,42.37
2022-08-08T14:28:39.698Z,42.39
2022-08-08T14:31:11.434Z,42.34
2022-08-08T14:33:52.624Z,42.09
2022-08-08T14:36:34.658Z,41.16
2022-08-08T14:39:11.639Z,42.34
2022-08-08T14:41:45.269Z,41.93
2022-08-08T14:44:35.055Z,41.73
2022-08-08T14:47:17.222Z,42.66
2022-08-08T14:50:05.909Z,42.73
2022-08-08T14:52:54.132Z,42.39
2022-08-08T14:55:35.590Z,42.68
2022-08-08T14:58:12.184Z,42.44
2022-08-08T15:00:46.474Z,42.48
2022-08-08T15:03:17.257Z,42.38
2022-08-08T15:05:53.957Z,42.78
2022-08-08T15:08:34.986Z,42.45
2022-08-08T15:11:11.287Z,42.68
2022-08-08T15:14:01.762Z,42.51
2022-08-08T15:16:29.769Z,42.72
2022-08-08T15:19:03.346Z,42.83
2022-08-08T15:21:31.549Z,42.74
2022-08-08T15:24:01.205Z,43.36
2022-08-08T15:26:31.262Z,43.80
2022-08-08T15:28:59.264Z,43.21
2022-08-08T15:32:18.926Z,43.14
2022-08-08T15:34:18.777Z,43.09
2022-08-08T15:37:02.085Z,43.02
2022-08-08T15:39:38.146Z,43.20
2022-08-08T15:42:18.027Z,43.04
2022-08-08T15:45:00.265Z,43.52
2022-08-08T15:47:28.374Z,43.26
2022-08-08T15:49:59.277Z,43.07
2022-08-08T15:52:27.119Z,43.28
2022-08-08T15:54:56.484Z,42.98
2022-08-08T15:57:24.381Z,42.92
2022-08-08T16:00:26.331Z,43.21
2022-08-08T16:02:44.197Z,43.58
2022-08-08T16:05:19.268Z,43.40
2022-08-08T16:07:52.599Z,43.32
2022-08-08T16:13:12.068Z,43.69
2022-08-08T16:13:27.272Z,43.88
2022-08-08T16:16:16.437Z,43.40
2022-08-08T16:18:56.453Z,43.94
2022-08-08T16:21:28.054Z,44.11
2022-08-08T16:23:57.451Z,43.71
2022-08-08T16:26:34.516Z,43.20
2022-08-08T16:29:08.098Z,43.68
2022-08-08T16:31:40.374Z,43.59
2022-08-08T16:34:08.916Z,43.60
2022-08-08T16:36:37.461Z,44.03
2022-08-08T16:39:09.611Z,44.04
2022-08-08T16:41:51.107Z,44.11
2022-08-08T16:44:27.593Z,44.28
2022-08-08T16:47:17.279Z,43.63
2022-08-08T16:49:47.840Z,44.06
2022-08-08T16:55:01.410Z,44.43
2022-08-08T16:55:42.820Z,44.27
2022-08-08T16:58:15.359Z,44.30
2022-08-08T17:00:49.082Z,44.59
2022-08-08T17:03:25.416Z,44.77
2022-08-08T17:06:37.702Z,44.64
2022-08-08T17:08:56.755Z,44.83
2022-08-08T17:11:28.226Z,44.57
2022-08-08T17:14:17.721Z,44.55
2022-08-08T17:16:57.587Z,44.44
2022-08-08T17:19:27.363Z,44.69
2022-08-08T17:21:56.991Z,44.86
2022-08-08T17:24:27.920Z,44.97
2022-08-08T17:26:58.845Z,44.75
2022-08-08T17:29:33.755Z,45.10
2022-08-08T17:32:04.360Z,44.98
2022-08-08T17:34:52.897Z,44.86
2022-08-08T17:37:22.511Z,45.06
2022-08-08T17:40:12.459Z,45.02
2022-08-08T17:42:41.365Z,44.88
2022-08-08T17:45:23.548Z,45.14
2022-08-08T17:47:54.196Z,45.16
2022-08-08T17:50:23.522Z,45.00
2022-08-08T17:52:51.867Z,45.33
2022-08-08T17:56:04.661Z,45.40
2022-08-08T17:58:09.389Z,45.58
2022-08-08T18:00:41.335Z,45.39
2022-08-08T18:03:13.862Z,45.52
2022-08-08T18:05:43.963Z,45.47
2022-08-08T18:08:24.783Z,45.53
2022-08-08T18:11:07.301Z,45.36
2022-08-08T18:13:41.651Z,45.73
2022-08-08T18:16:12.798Z,45.66
2022-08-08T18:18:52.494Z,45.77
2022-08-08T18:21:35.551Z,45.81
2022-08-08T18:24:19.541Z,45.81
2022-08-08T18:26:55.058Z,45.80
2022-08-08T18:29:30.210Z,46.13
2022-08-08T18:32:05.251Z,46.02
2022-08-08T18:34:35.680Z,45.84
2022-08-08T18:37:08.597Z,45.98
2022-08-08T18:39:37.876Z,45.06
2022-08-08T18:42:13.724Z,46.03
2022-08-08T18:44:55.231Z,46.10
2022-08-08T18:47:25.981Z,46.04
2022-08-08T18:49:58.669Z,46.02
2022-08-08T18:52:30.051Z,46.20
2022-08-08T18:54:59.376Z,46.36
2022-08-08T18:57:31.741Z,46.43
2022-08-08T19:00:10.703Z,46.34
2022-08-08T19:02:48.363Z,46.42
2022-08-08T19:05:31.860Z,46.48
2022-08-08T19:08:24.688Z,46.65
2022-08-08T19:10:58.639Z,46.77
2022-08-08T19:13:52.772Z,46.76
2022-08-08T19:16:18.432Z,47.12
2022-08-08T19:18:59.952Z,47.13
2022-08-08T19:21:33.801Z,47.19
2022-08-08T19:24:18.499Z,47.39
2022-08-08T19:27:07.075Z,47.29
2022-08-08T19:29:42.449Z,47.75
2022-08-08T19:32:19.503Z,48.00
2022-08-08T19:34:52.050Z,47.87
2022-08-08T19:37:41.798Z,48.04
2022-08-08T19:40:14.624Z,48.01
2022-08-08T19:42:44.318Z,48.21
2022-08-08T19:45:13.960Z,48.51
2022-08-08T19:47:42.224Z,48.86
2022-08-08T19:50:15.058Z,48.88
2022-08-08T19:52:59.085Z,48.83
2022-08-08T19:55:27.788Z,49.17
2022-08-08T19:58:02.503Z,49.04
2022-08-08T20:00:34.434Z,48.73
2022-08-08T20:03:14.565Z,49.26
2022-08-08T20:06:15.522Z,49.42
2022-08-08T20:08:33.131Z,49.51
2022-08-08T20:11:01.204Z,49.23
2022-08-08T20:14:32.643Z,49.56
2022-08-08T20:16:18.750Z,49.63
2022-08-08T20:18:53.202Z,49.83
2022-08-08T20:21:25.255Z,49.71
2022-08-08T20:23:58.176Z,49.76
2022-08-08T20:26:29.976Z,49.91
2022-08-08T20:29:00.254Z,50.19
2022-08-08T20:32:02.829Z,49.92
2022-08-08T20:34:31.273Z,50.20
2022-08-08T20:37:03.246Z,50.43
2022-08-08T20:39:39.338Z,50.48
2022-08-08T20:42:28.812Z,50.58
2022-08-08T20:44:58.318Z,50.99
2022-08-08T20:47:26.844Z,50.84
2022-08-08T20:50:05.123Z,50.98
2022-08-08T20:52:35.062Z,51.01
2022-08-08T20:55:16.287Z,51.19
2022-08-08T20:57:51.331Z,51.24
2022-08-08T21:00:19.560Z,51.19
2022-08-08T21:02:52.498Z,51.47
2022-08-08T21:05:21.564Z,51.43
2022-08-08T21:08:37.166Z,51.26
2022-08-08T21:10:43.276Z,51.76
2022-08-08T21:13:11.242Z,51.77
2022-08-08T21:16:04.677Z,51.83
2022-08-08T21:18:28.017Z,51.89
2022-08-08T21:20:56.760Z,51.88
2022-08-08T21:23:59.033Z,52.19
2022-08-08T21:26:26.812Z,52.22
2022-08-08T21:28:56.055Z,51.91
2022-08-08T21:31:53.481Z,52.35
2022-08-08T21:34:18.659Z,52.24
2022-08-08T21:36:48.560Z,52.40
2022-08-08T21:39:19.087Z,52.28
2022-08-08T21:41:54.063Z,52.56
2022-08-08T21:44:27.136Z,52.67
2022-08-08T21:48:08.837Z,53.16
2022-08-08T21:49:43.065Z,53.19
2022-08-08T21:54:27.409Z,53.61
2022-08-08T21:55:04.214Z,53.16
2022-08-08T21:58:04.215Z,53.11
2022-08-08T22:00:37.321Z,53.32
2022-08-08T22:03:11.103Z,53.59
2022-08-08T22:05:48.503Z,53.48
2022-08-08T22:08:16.779Z,53.76
2022-08-08T22:10:54.191Z,53.49
2022-08-08T22:13:22.879Z,53.31
2022-08-08T22:15:58.313Z,53.60
2022-08-08T22:18:29.009Z,53.85
2022-08-08T22:20:59.502Z,53.89
2022-08-08T22:23:32.719Z,53.70
2022-08-08T22:26:26.834Z,54.46
2022-08-08T22:29:14.680Z,54.23
2022-08-08T22:31:40.568Z,54.11
2022-08-08T22:34:15.257Z,53.73
2022-08-08T22:36:43.483Z,53.60
2022-08-08T22:39:18.981Z,53.70
2022-08-08T22:41:49.589Z,54.16
2022-08-08T22:44:18.083Z,54.07
2022-08-08T22:46:46.027Z,53.81
2022-08-08T22:49:20.033Z,54.29
2022-08-08T22:51:48.287Z,54.26
2022-08-08T22:54:34.036Z,53.81
2022-08-08T22:57:11.482Z,54.37
2022-08-08T22:59:52.915Z,54.57
2022-08-08T23:02:28.835Z,54.26
2022-08-08T23:04:57.790Z,54.51
2022-08-08T23:07:51.541Z,54.59
2022-08-08T23:10:19.483Z,54.89
2022-08-08T23:12:51.757Z,54.84
2022-08-08T23:16:40.541Z,55.12
2022-08-08T23:18:11.832Z,54.92
2022-08-08T23:20:41.217Z,55.07
2022-08-08T23:23:12.163Z,54.60
2022-08-08T23:25:47.805Z,54.91
2022-08-08T23:28:19.208Z,54.97
2022-08-08T23:30:47.848Z,54.83
2022-08-08T23:33:20.860Z,54.91
2022-08-08T23:36:08.338Z,55.26
2022-08-08T23:38:44.351Z,54.82
2022-08-08T23:41:24.487Z,54.92
2022-08-08T23:43:56.866Z,55.18
2022-08-08T23:49:02.870Z,55.29
2022-08-08T23:49:14.540Z,55.29
2022-08-08T23:52:04.709Z,55.48
2022-08-08T23:54:41.285Z,55.01
2022-08-08T23:57:25.448Z,55.23
